createdAt,value
2022-12-16T00:01:09.983Z,-9.41
2022-12-16T00:03:38.651Z,-9.39
2022-12-16T00:06:06.355Z,-9.21
2022-12-16T00:08:34.975Z,-9.20
2022-12-16T00:11:02.386Z,-9.30
2022-12-16T00:13:30.955Z,-9.41
2022-12-16T00:15:58.455Z,-9.36
2022-12-16T00:18:25.579Z,-9.19
2022-12-16T00:20:55.054Z,-9.12
2022-12-16T00:23:22.045Z,-9.30
2022-12-16T00:25:49.198Z,-9.35
2022-12-16T00:28:17.242Z,-9.40
2022-12-16T00:30:45.423Z,-9.43
2022-12-16T00:33:13.082Z,-9.36
2022-12-16T00:35:44.485Z,-9.40
2022-12-16T00:38:14.520Z,-9.47
2022-12-16T00:40:41.198Z,-9.42
2022-12-16T00:43:07.888Z,-9.37
2022-12-16T00:45:35.415Z,-9.23
2022-12-16T00:48:02.204Z,-9.11
2022-12-16T00:50:28.842Z,-9.22
2022-12-16T00:52:55.532Z,-9.26
2022-12-16T00:55:23.924Z,-9.27
2022-12-16T00:57:50.544Z,-9.31
2022-12-16T01:00:20.331Z,-9.33
2022-12-16T01:02:49.276Z,-9.38
2022-12-16T01:05:18.295Z,-9.33
2022-12-16T01:07:44.935Z,-9.31
2022-12-16T01:10:11.886Z,-9.22
2022-12-16T01:12:40.081Z,-9.18
2022-12-16T01:15:08.487Z,-9.17
2022-12-16T01:17:35.540Z,-9.32
2022-12-16T01:20:02.384Z,-9.38
2022-12-16T01:22:30.900Z,-9.41
2022-12-16T01:24:57.622Z,-9.46
2022-12-16T01:27:24.556Z,-9.46
2022-12-16T01:29:52.613Z,-9.39
2022-12-16T01:32:20.227Z,-9.52
2022-12-16T01:34:54.850Z,-9.54
2022-12-16T01:37:23.156Z,-9.42
2022-12-16T01:39:50.643Z,-9.16
2022-12-16T01:42:19.637Z,-9.29
2022-12-16T01:44:48.497Z,-9.40
2022-12-16T01:47:20.732Z,-9.38
2022-12-16T01:49:53.093Z,-9.44
2022-12-16T01:52:26.097Z,-9.52
2022-12-16T01:54:58.861Z,-9.61
2022-12-16T01:57:30.817Z,-9.49
2022-12-16T01:59:57.804Z,-9.38
2022-12-16T02:02:27.310Z,-9.14
2022-12-16T02:05:13.754Z,-9.15
2022-12-16T02:07:43.242Z,-9.26
2022-12-16T02:10:11.920Z,-9.32
2022-12-16T02:12:50.109Z,-9.31
2022-12-16T02:15:31.368Z,-9.35
2022-12-16T02:18:08.361Z,-9.28
2022-12-16T02:21:16.673Z,-9.43
2022-12-16T02:24:15.132Z,-9.47
2022-12-16T02:27:03.427Z,-9.51
2022-12-16T02:29:56.463Z,-9.54
2022-12-16T02:32:30.545Z,-9.41
2022-12-16T02:35:05.475Z,-9.36
2022-12-16T02:37:41.138Z,-9.43
2022-12-16T02:40:16.948Z,-9.43
2022-12-16T02:42:50.396Z,-9.33
2022-12-16T02:45:24.989Z,-9.35
2022-12-16T02:47:53.257Z,-9.56
2022-12-16T02:50:23.205Z,-9.60
2022-12-16T02:52:51.308Z,-9.47
2022-12-16T02:55:18.137Z,-9.41
2022-12-16T02:58:03.822Z,-9.30
2022-12-16T03:00:40.042Z,-9.30
2022-12-16T03:03:14.070Z,-9.37
2022-12-16T03:05:48.158Z,-9.42
2022-12-16T03:08:20.279Z,-9.46
2022-12-16T03:10:51.201Z,-9.45
2022-12-16T03:13:20.162Z,-9.41
2022-12-16T03:15:49.769Z,-9.32
2022-12-16T03:18:19.926Z,-9.17
2022-12-16T03:20:52.390Z,-9.09
2022-12-16T03:23:25.773Z,-9.16
2022-12-16T03:26:00.727Z,-9.30
2022-12-16T03:28:36.122Z,-9.35
2022-12-16T03:31:08.562Z,-9.26
2022-12-16T03:33:41.341Z,-9.14
2022-12-16T03:36:12.530Z,-9.28
2022-12-16T03:38:41.258Z,-9.43
2022-12-16T03:41:08.602Z,-9.41
2022-12-16T03:43:36.611Z,-9.15
2022-12-16T03:46:06.602Z,-9.09
2022-12-16T03:48:34.482Z,-9.10
2022-12-16T03:51:02.652Z,-9.16
2022-12-16T03:53:30.300Z,-9.29
2022-12-16T03:55:57.173Z,-9.45
2022-12-16T03:58:25.724Z,-9.36
2022-12-16T04:00:52.865Z,-9.14
2022-12-16T04:03:22.753Z,-9.36
2022-12-16T04:05:49.561Z,-9.31
2022-12-16T04:08:17.640Z,-9.34
2022-12-16T04:11:03.114Z,-9.34
2022-12-16T04:13:48.558Z,-9.34
2022-12-16T04:16:35.557Z,-9.07
2022-12-16T04:19:21.034Z,-8.97
2022-12-16T04:22:06.354Z,-8.88
2022-12-16T04:24:35.438Z,-9.00
2022-12-16T04:27:20.840Z,-9.13
2022-12-16T04:30:06.187Z,-9.10
2022-12-16T04:32:52.895Z,-9.12
2022-12-16T04:35:38.182Z,-9.25
2022-12-16T04:38:23.619Z,-9.21
2022-12-16T04:41:10.212Z,-8.97
2022-12-16T04:43:55.585Z,-8.72
2022-12-16T04:46:41.031Z,-8.88
2022-12-16T04:49:26.505Z,-9.05
2022-12-16T04:52:12.038Z,-9.14
2022-12-16T04:54:57.492Z,-9.25
2022-12-16T04:57:44.059Z,-9.20
2022-12-16T05:00:30.006Z,-9.21
2022-12-16T05:03:15.742Z,-9.19
2022-12-16T05:06:01.618Z,-9.12
2022-12-16T05:08:46.925Z,-9.03
2022-12-16T05:11:32.395Z,-9.07
2022-12-16T05:14:19.096Z,-9.14
2022-12-16T05:17:04.401Z,-8.84
2022-12-16T05:19:49.856Z,-8.92
2022-12-16T05:22:35.148Z,-8.89
2022-12-16T05:25:20.438Z,-9.05
2022-12-16T05:28:09.563Z,-9.08
2022-12-16T05:30:56.323Z,-8.98
2022-12-16T05:33:41.927Z,-8.99
2022-12-16T05:36:27.683Z,-8.98
2022-12-16T05:39:13.101Z,-9.04
2022-12-16T05:41:58.533Z,-9.06
2022-12-16T05:44:43.691Z,-9.04
2022-12-16T05:47:30.522Z,-9.04
2022-12-16T05:50:15.752Z,-9.19
2022-12-16T05:53:07.801Z,-9.20
2022-12-16T05:55:53.103Z,-9.19
2022-12-16T05:58:38.423Z,-9.26
2022-12-16T06:01:24.286Z,-9.31
2022-12-16T06:04:17.114Z,-9.33
2022-12-16T06:07:02.591Z,-9.17
2022-12-16T06:09:50.647Z,-9.18
2022-12-16T06:12:40.282Z,-9.15
2022-12-16T06:15:26.201Z,-9.19
2022-12-16T06:18:11.518Z,-9.29
2022-12-16T06:20:58.061Z,-9.15
2022-12-16T06:23:43.255Z,-9.20
2022-12-16T06:26:28.405Z,-9.28
2022-12-16T06:29:13.559Z,-9.00
2022-12-16T06:31:58.933Z,-9.14
2022-12-16T06:34:44.705Z,-9.27
2022-12-16T06:37:34.321Z,-9.15
2022-12-16T06:40:20.566Z,-8.98
2022-12-16T06:43:05.820Z,-9.04
2022-12-16T06:45:51.146Z,-8.93
2022-12-16T06:48:38.502Z,-8.89
2022-12-16T06:51:24.375Z,-8.90
2022-12-16T06:54:10.792Z,-8.80
2022-12-16T06:56:56.233Z,-8.55
2022-12-16T06:59:41.708Z,-8.44
2022-12-16T07:02:29.454Z,-8.45
2022-12-16T07:05:15.041Z,-8.66
2022-12-16T07:08:06.203Z,-8.22
2022-12-16T07:10:52.681Z,-7.86
2022-12-16T07:13:40.602Z,-8.31
2022-12-16T07:16:26.400Z,-8.33
2022-12-16T07:19:11.458Z,-8.46
2022-12-16T07:21:56.841Z,-8.49
2022-12-16T07:24:42.123Z,-8.48
2022-12-16T07:27:28.825Z,-8.59
2022-12-16T07:30:14.232Z,-8.72
2022-12-16T07:32:59.504Z,-8.65
2022-12-16T07:35:44.731Z,-8.72
2022-12-16T07:38:30.000Z,-8.81
2022-12-16T07:41:15.271Z,-8.81
2022-12-16T07:44:02.008Z,-8.73
2022-12-16T07:46:47.316Z,-8.74
2022-12-16T07:49:32.761Z,-8.73
2022-12-16T07:52:17.953Z,-8.73
2022-12-16T07:55:03.295Z,-8.76
2022-12-16T07:57:48.675Z,-8.66
2022-12-16T08:00:35.642Z,-8.58
2022-12-16T08:03:21.180Z,-8.59
2022-12-16T08:06:08.103Z,-8.59
2022-12-16T08:08:53.454Z,-8.49
2022-12-16T08:11:38.640Z,-8.42
2022-12-16T08:14:23.853Z,-8.10
2022-12-16T08:17:10.671Z,-7.48
2022-12-16T08:19:56.215Z,-7.60
2022-12-16T08:22:41.557Z,-7.71
2022-12-16T08:25:27.193Z,-7.65
2022-12-16T08:28:12.973Z,-7.60
2022-12-16T08:31:06.092Z,-7.46
2022-12-16T08:33:52.794Z,-7.41
2022-12-16T08:36:38.236Z,-7.41
2022-12-16T08:39:23.533Z,-7.32
2022-12-16T08:42:08.962Z,-7.16
2022-12-16T08:44:54.231Z,-7.07
2022-12-16T08:47:39.408Z,-7.04
2022-12-16T08:50:26.716Z,-7.03
2022-12-16T08:53:11.705Z,-7.10
2022-12-16T08:55:57.097Z,-7.03
2022-12-16T08:58:42.593Z,-7.05
2022-12-16T09:01:27.969Z,-6.98
2022-12-16T09:04:13.328Z,-6.97
2022-12-16T09:07:04.558Z,-6.75
2022-12-16T09:09:50.357Z,-6.73
2022-12-16T09:12:35.894Z,-6.74
2022-12-16T09:15:21.220Z,-6.80
2022-12-16T09:18:12.121Z,-6.84
2022-12-16T09:20:57.641Z,-6.87
2022-12-16T09:23:44.879Z,-6.90
2022-12-16T09:26:30.335Z,-6.80
2022-12-16T09:29:15.536Z,-6.49
2022-12-16T09:32:00.870Z,-6.29
2022-12-16T09:34:46.247Z,-6.13
2022-12-16T09:37:31.476Z,-6.03
2022-12-16T09:40:18.108Z,-5.83
2022-12-16T09:43:09.505Z,-5.02
2022-12-16T09:46:03.481Z,-4.75
2022-12-16T09:48:59.109Z,-4.61
2022-12-16T09:51:45.994Z,-4.73
2022-12-16T09:54:33.364Z,-4.69
2022-12-16T09:57:25.584Z,-4.71
2022-12-16T10:00:14.584Z,-4.61
2022-12-16T10:03:06.604Z,-4.53
2022-12-16T10:05:58.089Z,-4.50
2022-12-16T10:08:50.417Z,-4.41
2022-12-16T10:11:43.495Z,-4.44
2022-12-16T10:14:38.075Z,-4.44
2022-12-16T10:17:31.073Z,-4.48
2022-12-16T10:20:22.106Z,-4.40
2022-12-16T10:23:16.472Z,-4.23
2022-12-16T10:26:06.815Z,-4.16
2022-12-16T10:29:03.211Z,-3.80
2022-12-16T10:31:49.889Z,-3.64
2022-12-16T10:34:38.786Z,-3.62
2022-12-16T10:37:24.127Z,-3.78
2022-12-16T10:40:14.069Z,-3.80
2022-12-16T10:43:07.138Z,-3.83
2022-12-16T10:45:58.971Z,-3.78
2022-12-16T10:48:56.687Z,-3.94
2022-12-16T10:51:45.761Z,-3.87
2022-12-16T10:54:47.368Z,-4.05
2022-12-16T10:57:38.878Z,-4.25
2022-12-16T11:00:31.764Z,-4.25
2022-12-16T11:03:35.481Z,-4.30
2022-12-16T11:06:22.836Z,-4.08
2022-12-16T11:09:07.871Z,-3.96
2022-12-16T11:11:53.254Z,-3.90
2022-12-16T11:14:59.503Z,-3.78
2022-12-16T11:17:48.129Z,-3.73
2022-12-16T11:20:37.425Z,-3.84
2022-12-16T11:23:35.295Z,-3.78
2022-12-16T11:26:36.051Z,-3.85
2022-12-16T11:29:27.397Z,-3.68
2022-12-16T11:32:17.217Z,-3.73
2022-12-16T11:35:07.590Z,-3.60
2022-12-16T11:37:54.147Z,-3.46
2022-12-16T11:40:41.503Z,-3.44
2022-12-16T11:43:31.734Z,-3.27
2022-12-16T11:46:20.229Z,-3.21
2022-12-16T11:49:11.022Z,-3.09
2022-12-16T11:52:20.887Z,-3.20
2022-12-16T11:55:13.936Z,-3.47
2022-12-16T11:58:05.958Z,-3.43
2022-12-16T12:00:56.818Z,-3.61
2022-12-16T12:03:44.723Z,-3.45
2022-12-16T12:06:41.454Z,-3.21
2022-12-16T12:09:32.197Z,-2.99
2022-12-16T12:12:28.620Z,-3.10
2022-12-16T12:15:24.810Z,-3.07
2022-12-16T12:18:17.931Z,-3.36
2022-12-16T12:21:09.070Z,-3.33
2022-12-16T12:24:04.328Z,-3.31
2022-12-16T12:26:51.687Z,-3.40
2022-12-16T12:29:46.928Z,-3.56
2022-12-16T12:32:48.342Z,-3.12
2022-12-16T12:35:47.397Z,-2.93
2022-12-16T12:38:38.414Z,-2.86
2022-12-16T12:41:32.482Z,-2.89
2022-12-16T12:44:36.450Z,-2.30
2022-12-16T12:47:30.375Z,-2.27
2022-12-16T12:50:25.075Z,-2.16
2022-12-16T12:53:31.278Z,-2.88
2022-12-16T12:56:29.030Z,-3.01
2022-12-16T12:59:20.666Z,-3.13
2022-12-16T13:02:07.072Z,-3.23
2022-12-16T13:04:53.420Z,-3.41
2022-12-16T13:07:40.070Z,-3.29
2022-12-16T13:10:48.568Z,-3.52
2022-12-16T13:13:55.636Z,-3.48
2022-12-16T13:17:25.775Z,-3.74
2022-12-16T13:20:21.863Z,-3.79
2022-12-16T13:23:08.507Z,-3.74
2022-12-16T13:25:58.049Z,-3.94
2022-12-16T13:28:50.457Z,-3.97
2022-12-16T13:31:36.860Z,-4.03
2022-12-16T13:34:25.811Z,-3.97
2022-12-16T13:37:21.369Z,-3.92
2022-12-16T13:40:23.584Z,-3.96
2022-12-16T13:43:13.129Z,-3.91
2022-12-16T13:46:01.273Z,-3.91
2022-12-16T13:48:53.504Z,-3.92
2022-12-16T13:52:15.376Z,-3.78
2022-12-16T13:55:05.240Z,-3.76
2022-12-16T13:57:56.969Z,-3.97
2022-12-16T14:00:44.837Z,-4.01
2022-12-16T14:03:36.902Z,-3.89
2022-12-16T14:06:35.883Z,-3.83
2022-12-16T14:09:23.044Z,-3.79
2022-12-16T14:12:17.549Z,-3.89
2022-12-16T14:18:26.157Z,-4.11
2022-12-16T14:21:17.851Z,-4.13
2022-12-16T14:24:08.270Z,-4.07
2022-12-16T14:26:54.866Z,-4.05
2022-12-16T14:29:44.235Z,-4.13
2022-12-16T14:32:47.092Z,-4.21
2022-12-16T14:35:34.602Z,-4.14
2022-12-16T14:38:39.784Z,-4.19
2022-12-16T14:41:29.378Z,-4.28
2022-12-16T14:44:14.760Z,-4.23
2022-12-16T14:47:00.676Z,-4.27
2022-12-16T14:49:49.501Z,-4.22
2022-12-16T14:52:37.741Z,-4.30
2022-12-16T14:55:32.051Z,-4.34
2022-12-16T14:58:24.473Z,-4.42
2022-12-16T15:01:15.501Z,-4.45
2022-12-16T15:04:03.737Z,-4.55
2022-12-16T15:06:56.999Z,-4.72
2022-12-16T15:09:48.288Z,-4.85
2022-12-16T15:12:37.109Z,-4.96
2022-12-16T15:15:25.089Z,-4.95
2022-12-16T15:18:13.573Z,-5.06
2022-12-16T15:21:07.078Z,-5.21
2022-12-16T15:23:57.624Z,-5.31
2022-12-16T15:26:50.848Z,-4.98
2022-12-16T15:29:53.808Z,-4.76
2022-12-16T15:32:50.714Z,-5.13
2022-12-16T15:35:49.378Z,-5.36
2022-12-16T15:38:46.408Z,-5.46
2022-12-16T15:41:45.586Z,-5.61
2022-12-16T15:44:35.559Z,-5.70
2022-12-16T15:47:21.566Z,-5.79
2022-12-16T15:50:07.435Z,-5.91
2022-12-16T15:52:55.784Z,-5.94
2022-12-16T15:55:47.819Z,-6.14
2022-12-16T15:58:40.288Z,-6.25
2022-12-16T16:01:27.474Z,-6.40
2022-12-16T16:04:14.984Z,-6.52
2022-12-16T16:07:03.692Z,-6.60
2022-12-16T16:09:50.550Z,-6.60
2022-12-16T16:12:37.993Z,-6.44
2022-12-16T16:15:27.333Z,-5.98
2022-12-16T16:18:15.321Z,-6.29
2022-12-16T16:21:01.784Z,-6.68
2022-12-16T16:23:47.716Z,-6.83
2022-12-16T16:26:35.815Z,-6.97
2022-12-16T16:29:21.381Z,-7.03
2022-12-16T16:32:08.361Z,-7.17
2022-12-16T16:34:53.795Z,-7.24
2022-12-16T16:37:40.056Z,-7.20
2022-12-16T16:40:41.057Z,-7.23
2022-12-16T16:43:26.227Z,-7.31
2022-12-16T16:46:13.285Z,-7.38
2022-12-16T16:49:00.929Z,-7.49
2022-12-16T16:51:47.389Z,-7.51
2022-12-16T16:54:34.210Z,-7.57
2022-12-16T16:57:19.986Z,-7.57
2022-12-16T17:00:05.435Z,-7.60
2022-12-16T17:02:50.947Z,-7.54
2022-12-16T17:05:37.714Z,-6.73
2022-12-16T17:08:23.325Z,-6.14
2022-12-16T17:11:08.593Z,-6.75
2022-12-16T17:13:53.878Z,-7.00
2022-12-16T17:16:40.089Z,-7.22
2022-12-16T17:19:25.516Z,-7.49
2022-12-16T17:22:12.457Z,-7.62
2022-12-16T17:24:57.594Z,-7.71
2022-12-16T17:27:46.449Z,-7.76
2022-12-16T17:30:35.435Z,-7.87
2022-12-16T17:33:20.815Z,-8.04
2022-12-16T17:36:06.945Z,-8.02
2022-12-16T17:38:57.122Z,-8.03
2022-12-16T17:41:42.806Z,-8.02
2022-12-16T17:44:28.151Z,-8.08
2022-12-16T17:47:13.392Z,-8.16
2022-12-16T17:49:58.773Z,-8.13
2022-12-16T17:52:43.805Z,-8.10
2022-12-16T17:55:30.779Z,-8.19
2022-12-16T17:58:16.070Z,-8.28
2022-12-16T18:01:01.527Z,-8.35
2022-12-16T18:03:46.895Z,-8.40
2022-12-16T18:06:31.949Z,-8.35
2022-12-16T18:09:17.324Z,-8.40
2022-12-16T18:12:03.700Z,-8.46
2022-12-16T18:14:49.145Z,-8.51
2022-12-16T18:17:34.849Z,-8.43
2022-12-16T18:20:23.333Z,-8.48
2022-12-16T18:23:11.075Z,-8.42
2022-12-16T18:25:56.596Z,-8.43
2022-12-16T18:28:43.133Z,-8.48
2022-12-16T18:31:28.654Z,-8.52
2022-12-16T18:34:15.165Z,-8.60
2022-12-16T18:37:00.606Z,-8.53
2022-12-16T18:39:46.290Z,-8.48
2022-12-16T18:42:31.332Z,-8.55
2022-12-16T18:45:17.952Z,-8.62
2022-12-16T18:48:03.722Z,-8.61
2022-12-16T18:50:49.175Z,-8.65
2022-12-16T18:53:38.858Z,-8.69
2022-12-16T18:56:30.350Z,-8.56
2022-12-16T18:59:15.783Z,-8.72
2022-12-16T19:02:02.448Z,-8.77
2022-12-16T19:04:48.236Z,-8.79
2022-12-16T19:07:34.203Z,-8.84
2022-12-16T19:10:19.341Z,-8.85
2022-12-16T19:13:04.676Z,-8.86
2022-12-16T19:15:49.959Z,-8.91
2022-12-16T19:18:37.349Z,-8.89
2022-12-16T19:21:23.246Z,-8.93
2022-12-16T19:24:10.282Z,-8.98
2022-12-16T19:26:56.612Z,-8.96
2022-12-16T19:29:42.481Z,-9.08
2022-12-16T19:32:27.908Z,-9.15
2022-12-16T19:35:14.643Z,-9.19
2022-12-16T19:37:59.851Z,-9.19
2022-12-16T19:40:45.119Z,-9.09
2022-12-16T19:43:30.547Z,-9.18
2022-12-16T19:46:16.036Z,-9.17
2022-12-16T19:49:02.029Z,-9.18
2022-12-16T19:51:48.592Z,-9.22
2022-12-16T19:54:34.142Z,-9.11
2022-12-16T19:57:19.481Z,-9.01
2022-12-16T20:00:04.897Z,-9.10
2022-12-16T20:02:50.479Z,-9.18
2022-12-16T20:05:37.055Z,-9.22
2022-12-16T20:08:23.756Z,-9.28
2022-12-16T20:11:09.183Z,-9.21
2022-12-16T20:13:56.074Z,-9.16
2022-12-16T20:16:41.283Z,-9.34
2022-12-16T20:19:26.712Z,-9.31
2022-12-16T20:22:16.331Z,-9.29
2022-12-16T20:25:03.265Z,-9.27
2022-12-16T20:27:48.666Z,-9.18
2022-12-16T20:30:33.965Z,-9.18
2022-12-16T20:33:19.176Z,-9.22
2022-12-16T20:36:13.812Z,-8.72
2022-12-16T20:38:59.251Z,-8.72
2022-12-16T20:41:45.807Z,-8.71
2022-12-16T20:44:31.615Z,-8.87
2022-12-16T20:47:16.919Z,-8.66
2022-12-16T20:50:02.341Z,-8.77
2022-12-16T20:52:47.673Z,-8.67
2022-12-16T20:55:33.014Z,-8.53
2022-12-16T20:58:19.828Z,-8.59
2022-12-16T21:01:10.431Z,-8.73
2022-12-16T21:03:56.199Z,-8.68
2022-12-16T21:06:42.237Z,-8.68
2022-12-16T21:09:27.736Z,-8.66
2022-12-16T21:12:12.985Z,-8.69
2022-12-16T21:14:59.438Z,-8.72
2022-12-16T21:17:44.814Z,-8.74
2022-12-16T21:20:30.403Z,-8.68
2022-12-16T21:23:20.185Z,-8.66
2022-12-16T21:26:05.827Z,-8.69
2022-12-16T21:28:51.808Z,-8.67
2022-12-16T21:31:38.293Z,-8.73
2022-12-16T21:34:23.501Z,-8.77
2022-12-16T21:37:09.334Z,-8.75
2022-12-16T21:39:56.288Z,-8.72
2022-12-16T21:42:44.499Z,-8.50
2022-12-16T21:45:32.470Z,-8.46
2022-12-16T21:48:20.090Z,-8.59
2022-12-16T21:51:11.703Z,-8.68
2022-12-16T21:53:57.340Z,-8.70
2022-12-16T21:56:42.704Z,-8.67
2022-12-16T21:59:30.836Z,-8.58
2022-12-16T22:02:16.245Z,-8.17
2022-12-16T22:05:02.546Z,-8.41
2022-12-16T22:07:48.110Z,-8.60
2022-12-16T22:10:33.379Z,-8.51
2022-12-16T22:13:18.711Z,-8.54
2022-12-16T22:16:13.867Z,-8.48
2022-12-16T22:18:58.938Z,-8.49
2022-12-16T22:21:45.983Z,-8.56
2022-12-16T22:24:31.543Z,-8.61
2022-12-16T22:27:16.617Z,-8.67
2022-12-16T22:30:02.045Z,-8.80
2022-12-16T22:32:47.300Z,-8.88
2022-12-16T22:35:32.644Z,-8.96
2022-12-16T22:38:20.804Z,-8.91
2022-12-16T22:41:12.918Z,-8.92
2022-12-16T22:43:58.288Z,-9.05
2022-12-16T22:46:43.742Z,-8.79
2022-12-16T22:49:29.869Z,-8.67
2022-12-16T22:52:15.412Z,-8.71
2022-12-16T22:55:02.355Z,-8.70
2022-12-16T22:57:48.325Z,-8.87
2022-12-16T23:00:37.383Z,-8.84
2022-12-16T23:03:23.178Z,-8.74
2022-12-16T23:06:08.553Z,-8.76
2022-12-16T23:08:54.763Z,-8.86
2022-12-16T23:11:50.745Z,-8.97
2022-12-16T23:14:42.580Z,-8.93
2022-12-16T23:17:28.559Z,-8.89
2022-12-16T23:20:14.035Z,-8.89
2022-12-16T23:22:59.329Z,-8.69
2022-12-16T23:25:44.670Z,-8.68
2022-12-16T23:28:31.425Z,-8.74
2022-12-16T23:31:27.941Z,-8.88
2022-12-16T23:34:13.101Z,-8.89
2022-12-16T23:36:58.411Z,-8.90
2022-12-16T23:39:43.825Z,-8.85
2022-12-16T23:42:28.800Z,-8.73
2022-12-16T23:45:15.549Z,-8.76
2022-12-16T23:48:01.018Z,-8.86
2022-12-16T23:50:46.077Z,-8.85
2022-12-16T23:53:31.276Z,-8.92
2022-12-16T23:56:18.155Z,-8.88
2022-12-16T23:59:05.070Z,-8.86
